createdAt,value
2023-04-03T00:01:01.693Z,6.81
2023-04-03T00:03:04.309Z,6.76
2023-04-03T00:05:07.737Z,6.82
2023-04-03T00:07:10.400Z,6.82
2023-04-03T00:09:12.938Z,6.88
2023-04-03T00:11:16.168Z,6.87
2023-04-03T00:13:18.765Z,6.82
2023-04-03T00:15:21.590Z,6.81
2023-04-03T00:17:25.752Z,6.86
2023-04-03T00:19:28.344Z,6.81
2023-04-03T00:21:31.543Z,6.83
2023-04-03T00:23:34.988Z,6.83
2023-04-03T00:25:38.219Z,6.85
2023-04-03T00:27:41.550Z,6.81
2023-04-03T00:29:44.084Z,6.81
2023-04-03T00:31:46.673Z,6.80
2023-04-03T00:33:50.661Z,6.79
2023-04-03T00:35:53.392Z,6.77
2023-04-03T00:37:57.260Z,6.77
2023-04-03T00:40:02.308Z,6.74
2023-04-03T00:42:05.007Z,6.76
2023-04-03T00:44:22.108Z,6.70
2023-04-03T00:46:24.700Z,6.71
2023-04-03T00:48:31.552Z,6.71
2023-04-03T00:50:37.881Z,6.71
2023-04-03T00:52:41.451Z,6.70
2023-04-03T00:54:48.349Z,6.69
2023-04-03T00:56:53.701Z,6.69
2023-04-03T00:59:00.745Z,6.66
2023-04-03T01:01:08.640Z,6.69
2023-04-03T01:03:11.229Z,6.69
2023-04-03T01:05:17.053Z,6.69
2023-04-03T01:07:24.728Z,6.68
2023-04-03T01:09:28.104Z,6.69
2023-04-03T01:11:30.696Z,6.66
2023-04-03T01:13:35.273Z,6.68
2023-04-03T01:15:37.868Z,6.66
2023-04-03T01:17:42.199Z,6.64
2023-04-03T01:19:56.852Z,6.62
2023-04-03T01:22:20.080Z,6.60
2023-04-03T01:24:34.097Z,6.60
2023-04-03T01:26:37.200Z,6.57
2023-04-03T01:28:40.111Z,6.57
2023-04-03T01:30:49.573Z,6.58
2023-04-03T01:32:53.504Z,6.60
2023-04-03T01:34:56.121Z,6.55
2023-04-03T01:36:58.774Z,6.51
2023-04-03T01:39:02.208Z,6.52
2023-04-03T01:41:04.787Z,6.49
2023-04-03T01:43:07.308Z,6.45
2023-04-03T01:45:11.102Z,6.44
2023-04-03T01:47:13.642Z,6.43
2023-04-03T01:49:17.540Z,6.42
2023-04-03T01:51:20.116Z,6.40
2023-04-03T01:53:22.716Z,6.41
2023-04-03T01:55:25.299Z,6.39
2023-04-03T01:57:27.988Z,6.38
2023-04-03T01:59:30.652Z,6.39
2023-04-03T02:01:33.431Z,6.34
2023-04-03T02:03:36.604Z,6.38
2023-04-03T02:05:40.678Z,6.38
2023-04-03T02:07:43.209Z,6.38
2023-04-03T02:09:45.786Z,6.38
2023-04-03T02:11:48.348Z,6.34
2023-04-03T02:13:51.096Z,6.31
2023-04-03T02:15:53.646Z,6.34
2023-04-03T02:17:56.239Z,6.32
2023-04-03T02:19:58.814Z,6.33
2023-04-03T02:22:03.024Z,6.32
2023-04-03T02:24:06.308Z,6.31
2023-04-03T02:26:11.260Z,6.29
2023-04-03T02:28:13.810Z,6.22
2023-04-03T02:30:16.569Z,6.23
2023-04-03T02:32:19.157Z,6.21
2023-04-03T02:34:21.866Z,6.18
2023-04-03T02:36:24.490Z,6.12
2023-04-03T02:38:28.498Z,6.14
2023-04-03T02:40:31.036Z,6.09
2023-04-03T02:42:34.168Z,6.12
2023-04-03T02:44:37.109Z,6.06
2023-04-03T02:46:39.668Z,6.11
2023-04-03T02:48:42.297Z,6.09
2023-04-03T02:50:44.868Z,6.09
2023-04-03T02:52:47.647Z,6.07
2023-04-03T02:54:51.540Z,6.07
2023-04-03T02:56:54.118Z,6.07
2023-04-03T02:58:56.791Z,6.08
2023-04-03T03:00:59.358Z,6.08
2023-04-03T03:03:02.025Z,6.08
2023-04-03T03:05:05.119Z,6.11
2023-04-03T03:07:07.670Z,6.11
2023-04-03T03:09:10.261Z,6.11
2023-04-03T03:11:14.418Z,6.09
2023-04-03T03:13:16.961Z,6.05
2023-04-03T03:15:20.380Z,6.07
2023-04-03T03:17:22.951Z,6.09
2023-04-03T03:19:25.670Z,6.09
2023-04-03T03:21:28.328Z,6.08
2023-04-03T03:23:33.098Z,6.02
2023-04-03T03:25:35.940Z,6.04
2023-04-03T03:27:39.954Z,6.05
2023-04-03T03:29:42.521Z,6.06
2023-04-03T03:31:45.516Z,6.05
2023-04-03T03:33:48.108Z,6.00
2023-04-03T03:35:50.847Z,6.00
2023-04-03T03:37:53.508Z,5.98
2023-04-03T03:39:58.890Z,6.01
2023-04-03T03:42:01.442Z,6.02
2023-04-03T03:44:05.584Z,6.04
2023-04-03T03:46:08.181Z,6.04
2023-04-03T03:48:10.740Z,6.04
2023-04-03T03:50:13.288Z,5.98
2023-04-03T03:52:16.466Z,5.99
2023-04-03T03:54:19.071Z,5.99
2023-04-03T03:56:21.635Z,6.00
2023-04-03T03:58:24.295Z,5.96
2023-04-03T04:00:28.208Z,5.95
2023-04-03T04:02:30.947Z,5.95
2023-04-03T04:04:33.566Z,5.95
2023-04-03T04:06:36.102Z,5.94
2023-04-03T04:08:38.688Z,5.95
2023-04-03T04:10:41.259Z,5.95
2023-04-03T04:12:43.843Z,5.97
2023-04-03T04:14:47.594Z,5.92
2023-04-03T04:16:51.660Z,5.93
2023-04-03T04:18:54.297Z,5.93
2023-04-03T04:20:56.859Z,5.93
2023-04-03T04:22:59.429Z,5.97
2023-04-03T04:25:04.855Z,5.95
2023-04-03T04:27:07.518Z,5.96
2023-04-03T04:29:10.866Z,5.98
2023-04-03T04:31:13.465Z,5.95
2023-04-03T04:33:17.423Z,5.90
2023-04-03T04:35:20.050Z,5.91
2023-04-03T04:37:22.613Z,5.89
2023-04-03T04:39:25.266Z,5.89
2023-04-03T04:41:27.856Z,5.87
2023-04-03T04:43:30.399Z,5.85
2023-04-03T04:45:32.986Z,6.01
2023-04-03T04:47:35.556Z,5.89
2023-04-03T04:49:39.520Z,5.90
2023-04-03T04:51:51.650Z,5.90
2023-04-03T04:53:56.169Z,5.89
2023-04-03T04:55:58.862Z,5.90
2023-04-03T04:58:01.422Z,5.89
2023-04-03T05:00:05.070Z,5.87
2023-04-03T05:02:07.658Z,5.87
2023-04-03T05:04:10.454Z,5.87
2023-04-03T05:06:14.357Z,5.88
2023-04-03T05:08:17.032Z,5.92
2023-04-03T05:10:19.684Z,5.85
2023-04-03T05:12:22.261Z,5.85
2023-04-03T05:14:25.118Z,5.85
2023-04-03T05:16:27.716Z,5.85
2023-04-03T05:18:30.284Z,5.81
2023-04-03T05:20:33.103Z,5.81
2023-04-03T05:22:36.995Z,5.80
2023-04-03T05:24:39.959Z,5.82
2023-04-03T05:26:42.531Z,5.77
2023-04-03T05:28:45.269Z,5.77
2023-04-03T05:30:54.224Z,5.79
2023-04-03T05:32:56.880Z,5.76
2023-04-03T05:35:01.211Z,5.80
2023-04-03T05:37:05.405Z,5.81
2023-04-03T05:39:09.697Z,5.76
2023-04-03T05:41:13.262Z,5.75
2023-04-03T05:43:15.949Z,5.77
2023-04-03T05:45:18.647Z,5.79
2023-04-03T05:47:21.461Z,5.81
2023-04-03T05:49:24.039Z,5.76
2023-04-03T05:51:30.857Z,5.79
2023-04-03T05:53:37.505Z,5.81
2023-04-03T05:55:41.442Z,5.81
2023-04-03T05:57:44.064Z,5.83
2023-04-03T05:59:48.431Z,5.84
2023-04-03T06:01:50.998Z,5.84
2023-04-03T06:03:53.859Z,5.85
2023-04-03T06:05:56.592Z,5.85
2023-04-03T06:07:59.145Z,5.84
2023-04-03T06:10:02.304Z,5.79
2023-04-03T06:12:06.296Z,5.80
2023-04-03T06:14:08.946Z,5.80
2023-04-03T06:16:16.242Z,5.83
2023-04-03T06:18:18.833Z,5.86
2023-04-03T06:20:21.505Z,5.81
2023-04-03T06:22:26.531Z,5.86
2023-04-03T06:24:29.711Z,5.88
2023-04-03T06:26:32.841Z,5.88
2023-04-03T06:28:36.747Z,6.02
2023-04-03T06:30:39.465Z,5.92
2023-04-03T06:32:42.387Z,5.89
2023-04-03T06:34:44.965Z,5.88
2023-04-03T06:36:47.874Z,5.94
2023-04-03T06:38:50.978Z,5.96
2023-04-03T06:40:54.056Z,5.97
2023-04-03T06:42:56.607Z,5.95
2023-04-03T06:45:01.279Z,5.94
2023-04-03T06:47:03.933Z,5.94
2023-04-03T06:49:08.427Z,5.93
2023-04-03T06:51:19.464Z,5.90
2023-04-03T06:53:22.382Z,5.94
2023-04-03T06:55:24.980Z,5.90
2023-04-03T06:57:27.793Z,5.86
2023-04-03T06:59:30.392Z,5.89
2023-04-03T07:01:34.487Z,5.87
2023-04-03T07:03:37.682Z,5.86
2023-04-03T07:05:40.662Z,5.86
2023-04-03T07:07:43.752Z,5.86
2023-04-03T07:09:47.760Z,5.90
2023-04-03T07:11:50.347Z,5.90
2023-04-03T07:13:52.983Z,5.89
2023-04-03T07:15:55.593Z,5.90
2023-04-03T07:17:59.575Z,5.96
2023-04-03T07:20:02.159Z,5.89
2023-04-03T07:22:04.728Z,5.93
2023-04-03T07:24:09.010Z,6.17
2023-04-03T07:26:14.071Z,6.13
2023-04-03T07:28:17.760Z,6.11
2023-04-03T07:30:20.307Z,6.22
2023-04-03T07:32:22.849Z,6.17
2023-04-03T07:34:26.750Z,6.16
2023-04-03T07:36:34.279Z,6.16
2023-04-03T07:38:38.147Z,6.12
2023-04-03T07:40:41.057Z,6.15
2023-04-03T07:42:43.582Z,6.16
2023-04-03T07:44:46.581Z,6.18
2023-04-03T07:46:49.418Z,6.18
2023-04-03T07:48:52.089Z,6.23
2023-04-03T07:50:57.932Z,6.20
2023-04-03T07:53:00.497Z,6.21
2023-04-03T07:55:03.127Z,6.23
2023-04-03T07:57:06.042Z,6.21
2023-04-03T07:59:08.772Z,6.25
2023-04-03T08:01:11.565Z,6.31
2023-04-03T08:03:15.023Z,6.36
2023-04-03T08:05:18.104Z,6.42
2023-04-03T08:07:22.546Z,6.53
2023-04-03T08:09:25.110Z,6.53
2023-04-03T08:11:28.267Z,6.54
2023-04-03T08:13:31.990Z,6.53
2023-04-03T08:15:34.868Z,6.53
2023-04-03T08:17:37.989Z,6.57
2023-04-03T08:19:41.620Z,6.55
2023-04-03T08:21:44.239Z,6.71
2023-04-03T08:23:50.402Z,6.64
2023-04-03T08:25:52.976Z,6.55
2023-04-03T08:27:55.500Z,6.68
2023-04-03T08:29:58.197Z,6.70
2023-04-03T08:32:00.795Z,6.74
2023-04-03T08:34:03.365Z,6.70
2023-04-03T08:36:07.390Z,6.72
2023-04-03T08:38:10.554Z,6.74
2023-04-03T08:40:17.879Z,6.79
2023-04-03T08:42:38.074Z,6.78
2023-04-03T08:44:47.806Z,6.81
2023-04-03T08:47:05.426Z,6.75
2023-04-03T08:49:16.715Z,6.77
2023-04-03T08:51:21.855Z,6.95
2023-04-03T08:53:29.472Z,6.88
2023-04-03T08:55:36.485Z,6.84
2023-04-03T08:57:42.922Z,6.86
2023-04-03T08:59:45.667Z,6.87
2023-04-03T09:01:49.129Z,6.89
2023-04-03T09:03:51.732Z,6.96
2023-04-03T09:05:59.506Z,6.96
2023-04-03T09:08:09.583Z,6.90
2023-04-03T09:10:14.387Z,6.93
2023-04-03T09:12:24.884Z,6.93
2023-04-03T09:14:35.186Z,6.88
2023-04-03T09:16:49.924Z,6.90
2023-04-03T09:18:59.699Z,6.92
2023-04-03T09:21:09.433Z,6.91
2023-04-03T09:23:21.460Z,6.96
2023-04-03T09:25:27.519Z,6.96
2023-04-03T09:27:31.747Z,6.95
2023-04-03T09:29:40.558Z,6.93
2023-04-03T09:31:46.316Z,6.94
2023-04-03T09:33:51.266Z,7.01
2023-04-03T09:35:53.837Z,7.01
2023-04-03T09:38:00.762Z,7.02
2023-04-03T09:40:03.857Z,7.09
2023-04-03T09:42:13.719Z,7.08
2023-04-03T09:44:25.832Z,7.22
2023-04-03T09:46:32.832Z,7.20
2023-04-03T09:48:35.571Z,7.25
2023-04-03T09:50:39.370Z,7.32
2023-04-03T09:52:43.554Z,7.37
2023-04-03T09:54:46.284Z,7.25
2023-04-03T09:56:52.529Z,7.21
2023-04-03T09:59:15.894Z,7.18
2023-04-03T10:01:33.133Z,7.25
2023-04-03T10:03:37.551Z,7.20
2023-04-03T10:05:41.233Z,7.20
2023-04-03T10:07:48.630Z,7.25
2023-04-03T10:09:58.968Z,7.27
2023-04-03T10:12:06.363Z,7.29
2023-04-03T10:14:18.750Z,7.31
2023-04-03T10:16:25.665Z,7.36
2023-04-03T10:18:41.235Z,7.36
2023-04-03T10:20:50.401Z,7.49
2023-04-03T10:23:02.206Z,7.59
2023-04-03T10:25:06.397Z,7.63
2023-04-03T10:27:15.481Z,7.53
2023-04-03T10:29:28.337Z,7.48
2023-04-03T10:31:39.183Z,7.40
2023-04-03T10:33:55.459Z,7.45
2023-04-03T10:36:10.372Z,7.44
2023-04-03T10:38:20.868Z,7.39
2023-04-03T10:40:33.863Z,7.36
2023-04-03T10:42:45.763Z,7.38
2023-04-03T10:44:54.355Z,7.33
2023-04-03T10:47:04.972Z,7.34
2023-04-03T10:49:21.779Z,7.29
2023-04-03T10:51:29.869Z,7.38
2023-04-03T10:53:40.978Z,7.48
2023-04-03T10:55:53.572Z,7.53
2023-04-03T10:57:58.241Z,7.57
2023-04-03T11:00:05.077Z,7.57
2023-04-03T11:02:16.220Z,7.54
2023-04-03T11:04:22.795Z,7.53
2023-04-03T11:06:28.714Z,7.53
2023-04-03T11:08:39.016Z,7.57
2023-04-03T11:10:44.530Z,7.61
2023-04-03T11:12:53.576Z,7.65
2023-04-03T11:14:58.663Z,7.69
2023-04-03T11:17:17.488Z,7.70
2023-04-03T11:19:25.251Z,7.79
2023-04-03T11:21:32.083Z,7.75
2023-04-03T11:23:49.035Z,7.78
2023-04-03T11:25:56.385Z,7.79
2023-04-03T11:28:00.560Z,7.77
2023-04-03T11:30:07.787Z,7.76
2023-04-03T11:32:23.071Z,7.77
2023-04-03T11:34:39.173Z,7.80
2023-04-03T11:36:46.686Z,7.79
2023-04-03T11:38:54.716Z,7.79
2023-04-03T11:40:58.672Z,7.78
2023-04-03T11:43:08.570Z,7.72
2023-04-03T11:45:29.754Z,7.70
2023-04-03T11:47:49.176Z,7.67
2023-04-03T11:50:02.055Z,7.68
2023-04-03T11:52:05.056Z,7.70
2023-04-03T11:54:46.608Z,7.84
2023-04-03T11:56:49.158Z,7.75
2023-04-03T11:59:26.024Z,7.75
2023-04-03T12:01:50.171Z,7.67
2023-04-03T12:04:10.058Z,7.63
2023-04-03T12:06:51.185Z,7.67
2023-04-03T12:08:56.530Z,7.60
2023-04-03T12:11:18.399Z,7.62
2023-04-03T12:13:21.093Z,7.64
2023-04-03T12:15:46.717Z,7.62
2023-04-03T12:17:49.565Z,7.69
2023-04-03T12:19:52.727Z,7.70
2023-04-03T12:22:25.621Z,7.70
2023-04-03T12:24:31.148Z,7.74
2023-04-03T12:26:48.220Z,7.73
2023-04-03T12:28:54.784Z,7.72
2023-04-03T12:30:57.776Z,7.73
2023-04-03T12:33:22.306Z,7.91
2023-04-03T12:35:32.411Z,7.79
2023-04-03T12:37:58.509Z,7.75
2023-04-03T12:40:12.621Z,7.78
2023-04-03T12:42:35.540Z,7.78
2023-04-03T12:44:46.961Z,7.77
2023-04-03T12:46:51.882Z,7.78
2023-04-03T12:48:56.400Z,7.81
2023-04-03T12:51:00.447Z,7.88
2023-04-03T12:53:06.272Z,7.88
2023-04-03T12:55:19.731Z,7.91
2023-04-03T12:57:25.967Z,8.00
2023-04-03T12:59:28.888Z,8.03
2023-04-03T13:01:31.428Z,8.10
2023-04-03T13:03:34.237Z,8.07
2023-04-03T13:05:37.404Z,8.20
2023-04-03T13:07:41.924Z,8.09
2023-04-03T13:09:44.634Z,8.02
2023-04-03T13:11:48.736Z,7.99
2023-04-03T13:14:00.470Z,7.91
2023-04-03T13:16:10.131Z,7.86
2023-04-03T13:18:24.899Z,7.77
2023-04-03T13:20:29.766Z,7.79
2023-04-03T13:22:40.184Z,7.75
2023-04-03T13:24:44.863Z,7.79
2023-04-03T13:26:48.930Z,7.76
2023-04-03T13:28:53.774Z,7.79
2023-04-03T13:31:01.224Z,7.81
2023-04-03T13:33:06.765Z,7.81
2023-04-03T13:35:35.002Z,7.85
2023-04-03T13:37:37.631Z,7.84
2023-04-03T13:39:41.712Z,7.83
2023-04-03T13:41:46.990Z,7.82
2023-04-03T13:43:53.629Z,7.83
2023-04-03T13:46:07.450Z,7.88
2023-04-03T13:48:23.102Z,7.86
2023-04-03T13:50:29.928Z,7.93
2023-04-03T13:52:36.705Z,7.88
2023-04-03T13:54:41.132Z,7.86
2023-04-03T13:56:43.812Z,7.84
2023-04-03T13:59:04.409Z,7.82
2023-04-03T14:01:13.919Z,7.78
2023-04-03T14:03:23.507Z,7.84
2023-04-03T14:05:27.606Z,7.80
2023-04-03T14:07:31.925Z,7.78
2023-04-03T14:09:34.509Z,7.91
2023-04-03T14:11:37.351Z,7.93
2023-04-03T14:13:39.926Z,7.88
2023-04-03T14:15:48.324Z,7.93
2023-04-03T14:17:52.429Z,7.91
2023-04-03T14:19:56.510Z,7.90
2023-04-03T14:21:59.796Z,7.98
2023-04-03T14:24:02.454Z,8.00
2023-04-03T14:26:05.042Z,8.01
2023-04-03T14:28:17.977Z,8.02
2023-04-03T14:30:23.135Z,8.12
2023-04-03T14:32:28.726Z,8.07
2023-04-03T14:34:31.506Z,8.03
2023-04-03T14:36:34.409Z,8.02
2023-04-03T14:38:37.061Z,7.97
2023-04-03T14:40:39.730Z,7.97
2023-04-03T14:42:42.672Z,7.99
2023-04-03T14:44:45.757Z,8.01
2023-04-03T14:46:56.309Z,7.98
2023-04-03T14:49:01.245Z,8.00
2023-04-03T14:51:06.006Z,7.99
2023-04-03T14:53:09.000Z,8.02
2023-04-03T14:55:13.435Z,8.05
2023-04-03T14:57:17.255Z,8.06
2023-04-03T14:59:21.055Z,7.97
2023-04-03T15:01:24.145Z,7.96
2023-04-03T15:03:26.859Z,7.90
2023-04-03T15:05:30.827Z,7.88
2023-04-03T15:07:37.024Z,7.88
2023-04-03T15:09:39.607Z,7.93
2023-04-03T15:11:42.127Z,7.91
2023-04-03T15:13:45.337Z,7.93
2023-04-03T15:15:48.523Z,7.96
2023-04-03T15:17:55.913Z,7.97
2023-04-03T15:19:58.691Z,7.94
2023-04-03T15:22:02.546Z,7.95
2023-04-03T15:24:05.282Z,7.91
2023-04-03T15:26:08.279Z,7.93
2023-04-03T15:28:11.419Z,7.96
2023-04-03T15:30:17.687Z,7.95
2023-04-03T15:32:20.515Z,7.96
2023-04-03T15:34:23.380Z,8.05
2023-04-03T15:36:34.008Z,7.95
2023-04-03T15:38:39.066Z,7.88
2023-04-03T15:40:42.026Z,7.97
2023-04-03T15:42:44.592Z,7.89
2023-04-03T15:44:47.161Z,7.79
2023-04-03T15:46:52.277Z,7.77
2023-04-03T15:48:55.013Z,7.83
2023-04-03T15:50:59.079Z,7.82
2023-04-03T15:53:02.891Z,7.82
2023-04-03T15:55:07.927Z,7.81
2023-04-03T15:57:10.543Z,7.82
2023-04-03T15:59:13.192Z,7.83
2023-04-03T16:01:15.942Z,7.84
2023-04-03T16:03:21.332Z,7.88
2023-04-03T16:05:24.355Z,7.84
2023-04-03T16:07:27.045Z,7.89
2023-04-03T16:09:29.650Z,7.93
2023-04-03T16:11:33.571Z,7.96
2023-04-03T16:13:36.231Z,8.00
2023-04-03T16:15:38.929Z,8.00
2023-04-03T16:17:42.753Z,7.99
2023-04-03T16:19:45.343Z,8.25
2023-04-03T16:21:47.936Z,8.24
2023-04-03T16:23:50.515Z,8.17
2023-04-03T16:25:53.147Z,8.20
2023-04-03T16:27:57.046Z,8.20
2023-04-03T16:30:00.033Z,8.09
2023-04-03T16:32:04.089Z,8.03
2023-04-03T16:34:06.664Z,8.02
2023-04-03T16:36:09.512Z,7.91
2023-04-03T16:38:12.158Z,7.90
2023-04-03T16:40:14.788Z,7.91
2023-04-03T16:42:17.541Z,7.89
2023-04-03T16:44:21.422Z,7.92
2023-04-03T16:46:24.200Z,7.91
2023-04-03T16:48:27.102Z,7.86
2023-04-03T16:50:31.988Z,7.86
2023-04-03T16:52:35.016Z,7.86
2023-04-03T16:54:37.640Z,7.86
2023-04-03T16:56:40.171Z,7.81
2023-04-03T16:58:42.692Z,7.76
2023-04-03T17:00:48.176Z,7.74
2023-04-03T17:02:51.009Z,7.73
2023-04-03T17:04:53.754Z,7.77
2023-04-03T17:06:57.035Z,7.72
2023-04-03T17:08:59.635Z,7.74
2023-04-03T17:11:02.260Z,7.65
2023-04-03T17:13:05.314Z,7.60
2023-04-03T17:15:08.776Z,7.57
2023-04-03T17:17:12.891Z,7.57
2023-04-03T17:19:17.339Z,7.53
2023-04-03T17:21:19.922Z,7.55
2023-04-03T17:23:22.469Z,7.49
2023-04-03T17:25:25.027Z,7.46
2023-04-03T17:27:27.693Z,7.45
2023-04-03T17:29:30.408Z,7.54
2023-04-03T17:31:33.179Z,7.55
2023-04-03T17:33:37.179Z,7.52
2023-04-03T17:35:39.990Z,7.46
2023-04-03T17:37:42.752Z,7.42
2023-04-03T17:39:46.847Z,7.48
2023-04-03T17:41:49.622Z,7.42
2023-04-03T17:43:52.203Z,7.38
2023-04-03T17:45:56.012Z,7.38
2023-04-03T17:47:58.654Z,7.38
2023-04-03T17:50:02.597Z,7.32
2023-04-03T17:52:05.248Z,7.31
2023-04-03T17:54:07.905Z,7.35
2023-04-03T17:56:12.679Z,7.23
2023-04-03T17:58:15.272Z,7.25
2023-04-03T18:00:18.987Z,7.21
2023-04-03T18:02:21.599Z,7.13
2023-04-03T18:04:25.207Z,7.12
2023-04-03T18:06:32.672Z,7.07
2023-04-03T18:08:37.601Z,7.07
2023-04-03T18:10:40.432Z,7.04
2023-04-03T18:12:43.454Z,7.05
2023-04-03T18:14:46.850Z,7.04
2023-04-03T18:16:49.705Z,7.00
2023-04-03T18:19:02.487Z,7.01
2023-04-03T18:21:16.090Z,6.98
2023-04-03T18:23:20.061Z,6.98
2023-04-03T18:25:22.687Z,6.96
2023-04-03T18:27:28.044Z,6.96
2023-04-03T18:29:33.718Z,6.93
2023-04-03T18:31:38.156Z,6.92
2023-04-03T18:33:40.812Z,6.91
2023-04-03T18:35:43.568Z,6.87
2023-04-03T18:37:46.420Z,6.85
2023-04-03T18:39:50.305Z,6.84
2023-04-03T18:41:53.532Z,6.82
2023-04-03T18:43:57.116Z,6.82
2023-04-03T18:45:59.691Z,6.80
2023-04-03T18:48:02.552Z,6.79
2023-04-03T18:50:06.676Z,6.79
2023-04-03T18:52:10.253Z,6.79
2023-04-03T18:54:12.856Z,6.78
2023-04-03T18:56:16.792Z,6.77
2023-04-03T18:58:19.341Z,6.76
2023-04-03T19:00:22.022Z,6.78
2023-04-03T19:02:25.984Z,6.77
2023-04-03T19:04:29.844Z,6.75
2023-04-03T19:06:33.858Z,6.72
2023-04-03T19:08:37.242Z,6.72
2023-04-03T19:10:39.835Z,6.72
2023-04-03T19:12:44.246Z,6.68
2023-04-03T19:14:46.791Z,6.69
2023-04-03T19:16:49.377Z,6.71
2023-04-03T19:18:52.201Z,6.71
2023-04-03T19:20:56.717Z,6.68
2023-04-03T19:22:59.347Z,6.64
2023-04-03T19:25:01.910Z,6.67
2023-04-03T19:27:04.658Z,6.68
2023-04-03T19:29:08.706Z,6.66
2023-04-03T19:31:15.467Z,6.64
2023-04-03T19:33:18.156Z,6.61
2023-04-03T19:35:20.810Z,6.60
2023-04-03T19:37:24.831Z,6.57
2023-04-03T19:39:29.023Z,6.52
2023-04-03T19:41:34.643Z,6.48
2023-04-03T19:43:37.330Z,6.49
2023-04-03T19:45:42.066Z,6.48
2023-04-03T19:47:45.125Z,6.47
2023-04-03T19:49:49.778Z,6.48
2023-04-03T19:51:53.335Z,6.48
2023-04-03T19:53:55.908Z,6.46
2023-04-03T19:56:01.367Z,6.46
2023-04-03T19:58:04.504Z,6.47
2023-04-03T20:00:08.458Z,6.46
2023-04-03T20:02:12.572Z,6.43
2023-04-03T20:04:15.162Z,6.43
2023-04-03T20:06:18.211Z,6.41
2023-04-03T20:08:21.077Z,6.38
2023-04-03T20:10:23.636Z,6.33
2023-04-03T20:12:26.255Z,6.33
2023-04-03T20:14:29.110Z,6.34
2023-04-03T20:16:31.725Z,6.29
2023-04-03T20:18:36.584Z,6.27
2023-04-03T20:20:42.041Z,6.21
2023-04-03T20:22:44.924Z,6.21
2023-04-03T20:24:47.473Z,6.21
2023-04-03T20:26:51.150Z,6.17
2023-04-03T20:28:54.658Z,6.31
2023-04-03T20:30:57.204Z,6.28
2023-04-03T20:33:00.018Z,6.18
2023-04-03T20:35:04.844Z,6.21
2023-04-03T20:37:08.461Z,6.21
2023-04-03T20:39:11.077Z,6.22
2023-04-03T20:41:13.693Z,6.19
2023-04-03T20:43:17.003Z,6.16
2023-04-03T20:45:21.367Z,6.09
2023-04-03T20:47:24.244Z,6.20
2023-04-03T20:49:26.867Z,6.11
2023-04-03T20:51:31.363Z,6.18
2023-04-03T20:53:33.884Z,6.05
2023-04-03T20:55:37.266Z,6.11
2023-04-03T20:57:39.821Z,6.08
2023-04-03T20:59:43.816Z,6.02
2023-04-03T21:01:46.901Z,6.01
2023-04-03T21:03:52.429Z,6.04
2023-04-03T21:05:59.654Z,6.01
2023-04-03T21:08:39.957Z,5.96
2023-04-03T21:11:23.552Z,5.87
2023-04-03T21:14:03.410Z,5.89
2023-04-03T21:16:05.730Z,5.88
2023-04-03T21:18:42.413Z,5.72
2023-04-03T21:20:47.690Z,5.77
2023-04-03T21:22:50.369Z,5.75
2023-04-03T21:24:52.970Z,5.73
2023-04-03T21:26:58.058Z,5.74
2023-04-03T21:29:01.568Z,5.75
2023-04-03T21:31:04.212Z,5.66
2023-04-03T21:33:06.819Z,5.65
2023-04-03T21:35:10.798Z,5.58
2023-04-03T21:37:14.373Z,5.55
2023-04-03T21:39:17.584Z,5.53
2023-04-03T21:41:21.553Z,5.52
2023-04-03T21:43:24.098Z,5.49
2023-04-03T21:45:26.760Z,5.49
2023-04-03T21:47:29.380Z,5.46
2023-04-03T21:49:31.954Z,5.50
2023-04-03T21:51:36.651Z,5.47
2023-04-03T21:53:39.962Z,5.45
2023-04-03T21:55:42.656Z,5.41
2023-04-03T21:57:52.112Z,5.47
2023-04-03T21:59:54.696Z,5.41
2023-04-03T22:01:57.429Z,5.37
2023-04-03T22:04:02.483Z,5.33
2023-04-03T22:06:05.550Z,5.35
2023-04-03T22:08:09.436Z,5.28
2023-04-03T22:10:12.250Z,5.24
2023-04-03T22:12:14.774Z,5.24
2023-04-03T22:14:18.031Z,5.22
2023-04-03T22:16:20.977Z,5.16
2023-04-03T22:18:23.648Z,5.15
2023-04-03T22:20:26.383Z,5.15
2023-04-03T22:22:28.924Z,5.13
2023-04-03T22:24:32.809Z,5.12
2023-04-03T22:26:36.289Z,5.09
2023-04-03T22:28:39.974Z,5.09
2023-04-03T22:30:42.634Z,5.04
2023-04-03T22:32:46.038Z,5.02
2023-04-03T22:34:48.630Z,5.02
2023-04-03T22:36:51.151Z,5.02
2023-04-03T22:38:53.810Z,4.99
2023-04-03T22:41:02.189Z,4.98
2023-04-03T22:43:04.750Z,4.95
2023-04-03T22:45:08.426Z,4.93
2023-04-03T22:47:11.244Z,4.90
2023-04-03T22:49:14.077Z,4.87
2023-04-03T22:51:16.648Z,4.86
2023-04-03T22:53:20.028Z,4.82
2023-04-03T22:55:24.374Z,4.77
2023-04-03T22:57:28.271Z,4.78
2023-04-03T22:59:31.218Z,4.72
2023-04-03T23:01:33.882Z,4.69
2023-04-03T23:03:38.274Z,4.68
2023-04-03T23:05:41.601Z,4.66
2023-04-03T23:07:44.128Z,4.63
2023-04-03T23:09:46.685Z,4.60
2023-04-03T23:11:49.216Z,4.56
2023-04-03T23:13:53.091Z,4.52
2023-04-03T23:15:55.903Z,4.54
2023-04-03T23:17:58.529Z,4.47
2023-04-03T23:20:01.139Z,4.46
2023-04-03T23:22:03.715Z,4.45
2023-04-03T23:24:06.883Z,4.44
2023-04-03T23:26:10.113Z,4.42
2023-04-03T23:28:12.679Z,4.45
2023-04-03T23:30:16.574Z,4.35
2023-04-03T23:32:19.159Z,4.38
2023-04-03T23:34:21.723Z,4.36
2023-04-03T23:36:24.356Z,4.33
2023-04-03T23:38:27.767Z,4.38
2023-04-03T23:40:30.350Z,4.32
2023-04-03T23:42:32.870Z,4.33
2023-04-03T23:44:35.506Z,4.32
2023-04-03T23:46:39.425Z,4.29
2023-04-03T23:48:41.956Z,4.29
2023-04-03T23:50:44.691Z,4.25
2023-04-03T23:52:47.317Z,4.21
2023-04-03T23:54:50.511Z,4.25
2023-04-03T23:56:53.056Z,4.26
2023-04-03T23:58:55.674Z,4.23
